sensor_id;sensor_type;location;lat;lon;timestamp;P1;durP1;ratioP1;P2;durP2;ratioP2
62353;SDS011;48391;49.184;2.418;2023-04-03T00:00:24;11.85;;;8.15;;
62353;SDS011;48391;49.184;2.418;2023-04-03T00:02:50;9.20;;;7.60;;
62353;SDS011;48391;49.184;2.418;2023-04-03T00:05:16;14.05;;;9.15;;
62353;SDS011;48391;49.184;2.418;2023-04-03T00:07:42;9.15;;;7.88;;
62353;SDS011;48391;49.184;2.418;2023-04-03T00:10:08;9.20;;;7.20;;
62353;SDS011;48391;49.184;2.418;2023-04-03T00:12:35;10.32;;;7.05;;
62353;SDS011;48391;49.184;2.418;2023-04-03T00:15:01;8.45;;;6.47;;
62353;SDS011;48391;49.184;2.418;2023-04-03T00:17:27;10.38;;;7.28;;
62353;SDS011;48391;49.184;2.418;2023-04-03T00:19:53;8.95;;;7.97;;
62353;SDS011;48391;49.184;2.418;2023-04-03T00:22:19;7.90;;;7.10;;
62353;SDS011;48391;49.184;2.418;2023-04-03T00:24:45;9.23;;;8.32;;
62353;SDS011;48391;49.184;2.418;2023-04-03T00:27:11;10.45;;;8.45;;
62353;SDS011;48391;49.184;2.418;2023-04-03T00:29:37;8.48;;;6.95;;
62353;SDS011;48391;49.184;2.418;2023-04-03T00:32:03;8.43;;;7.60;;
62353;SDS011;48391;49.184;2.418;2023-04-03T00:34:29;9.65;;;7.68;;
62353;SDS011;48391;49.184;2.418;2023-04-03T00:36:55;8.38;;;7.47;;
62353;SDS011;48391;49.184;2.418;2023-04-03T00:39:21;10.43;;;9.32;;
62353;SDS011;48391;49.184;2.418;2023-04-03T00:41:47;10.10;;;8.60;;
62353;SDS011;48391;49.184;2.418;2023-04-03T00:44:20;13.18;;;8.95;;
62353;SDS011;48391;49.184;2.418;2023-04-03T00:46:46;13.20;;;8.77;;
62353;SDS011;48391;49.184;2.418;2023-04-03T00:49:12;11.07;;;8.88;;
62353;SDS011;48391;49.184;2.418;2023-04-03T00:51:38;6.55;;;5.95;;
62353;SDS011;48391;49.184;2.418;2023-04-03T00:54:05;9.45;;;7.38;;
62353;SDS011;48391;49.184;2.418;2023-04-03T00:56:32;8.95;;;7.55;;
62353;SDS011;48391;49.184;2.418;2023-04-03T00:59:08;8.98;;;6.60;;
62353;SDS011;48391;49.184;2.418;2023-04-03T01:01:35;7.80;;;6.45;;
62353;SDS011;48391;49.184;2.418;2023-04-03T01:04:03;8.23;;;6.85;;
62353;SDS011;48391;49.184;2.418;2023-04-03T01:06:32;8.98;;;6.90;;
62353;SDS011;48391;49.184;2.418;2023-04-03T01:08:59;7.22;;;6.47;;
62353;SDS011;48391;49.184;2.418;2023-04-03T01:11:26;6.43;;;5.82;;
62353;SDS011;48391;49.184;2.418;2023-04-03T01:13:52;6.35;;;5.57;;
62353;SDS011;48391;49.184;2.418;2023-04-03T01:16:18;6.88;;;6.15;;
62353;SDS011;48391;49.184;2.418;2023-04-03T01:18:44;7.88;;;6.05;;
62353;SDS011;48391;49.184;2.418;2023-04-03T01:23:49;7.35;;;5.75;;
62353;SDS011;48391;49.184;2.418;2023-04-03T01:26:17;6.25;;;5.38;;
62353;SDS011;48391;49.184;2.418;2023-04-03T01:28:44;6.95;;;5.47;;
62353;SDS011;48391;49.184;2.418;2023-04-03T01:33:37;7.60;;;5.55;;
62353;SDS011;48391;49.184;2.418;2023-04-03T01:36:03;5.15;;;4.72;;
62353;SDS011;48391;49.184;2.418;2023-04-03T01:38:29;7.93;;;4.97;;
62353;SDS011;48391;49.184;2.418;2023-04-03T01:40:55;4.65;;;4.15;;
62353;SDS011;48391;49.184;2.418;2023-04-03T01:43:21;5.75;;;4.88;;
62353;SDS011;48391;49.184;2.418;2023-04-03T01:45:48;6.10;;;5.28;;
62353;SDS011;48391;49.184;2.418;2023-04-03T01:48:19;5.10;;;4.30;;
62353;SDS011;48391;49.184;2.418;2023-04-03T01:50:45;5.75;;;5.05;;
62353;SDS011;48391;49.184;2.418;2023-04-03T01:53:11;4.72;;;4.15;;
62353;SDS011;48391;49.184;2.418;2023-04-03T01:55:37;5.57;;;3.83;;
62353;SDS011;48391;49.184;2.418;2023-04-03T01:58:03;7.15;;;5.32;;
62353;SDS011;48391;49.184;2.418;2023-04-03T02:00:30;8.75;;;5.38;;
62353;SDS011;48391;49.184;2.418;2023-04-03T02:02:56;4.00;;;3.70;;
62353;SDS011;48391;49.184;2.418;2023-04-03T02:05:22;5.68;;;5.18;;
62353;SDS011;48391;49.184;2.418;2023-04-03T02:10:24;5.65;;;5.13;;
62353;SDS011;48391;49.184;2.418;2023-04-03T02:12:50;4.68;;;4.20;;
62353;SDS011;48391;49.184;2.418;2023-04-03T02:15:16;4.20;;;3.47;;
62353;SDS011;48391;49.184;2.418;2023-04-03T02:17:43;3.45;;;3.13;;
62353;SDS011;48391;49.184;2.418;2023-04-03T02:20:09;4.70;;;4.13;;
62353;SDS011;48391;49.184;2.418;2023-04-03T02:22:35;5.82;;;5.20;;
62353;SDS011;48391;49.184;2.418;2023-04-03T02:25:01;7.95;;;6.22;;
62353;SDS011;48391;49.184;2.418;2023-04-03T02:27:28;7.15;;;5.40;;
62353;SDS011;48391;49.184;2.418;2023-04-03T02:29:54;6.80;;;5.15;;
62353;SDS011;48391;49.184;2.418;2023-04-03T02:32:20;5.13;;;4.63;;
62353;SDS011;48391;49.184;2.418;2023-04-03T02:34:46;6.55;;;4.70;;
62353;SDS011;48391;49.184;2.418;2023-04-03T02:37:12;4.57;;;4.10;;
62353;SDS011;48391;49.184;2.418;2023-04-03T02:39:38;4.30;;;3.88;;
62353;SDS011;48391;49.184;2.418;2023-04-03T02:42:04;5.32;;;4.13;;
62353;SDS011;48391;49.184;2.418;2023-04-03T02:44:30;7.32;;;5.43;;
62353;SDS011;48391;49.184;2.418;2023-04-03T02:46:56;5.57;;;4.53;;
62353;SDS011;48391;49.184;2.418;2023-04-03T02:49:22;7.97;;;5.70;;
62353;SDS011;48391;49.184;2.418;2023-04-03T02:51:48;6.28;;;5.30;;
62353;SDS011;48391;49.184;2.418;2023-04-03T02:54:15;5.45;;;4.95;;
62353;SDS011;48391;49.184;2.418;2023-04-03T02:56:41;5.15;;;4.65;;
62353;SDS011;48391;49.184;2.418;2023-04-03T02:59:07;6.25;;;5.05;;
62353;SDS011;48391;49.184;2.418;2023-04-03T03:01:33;6.32;;;5.25;;
62353;SDS011;48391;49.184;2.418;2023-04-03T03:04:00;6.00;;;4.45;;
62353;SDS011;48391;49.184;2.418;2023-04-03T03:06:26;5.80;;;4.85;;
62353;SDS011;48391;49.184;2.418;2023-04-03T03:08:53;6.13;;;5.53;;
62353;SDS011;48391;49.184;2.418;2023-04-03T03:11:19;6.72;;;6.03;;
62353;SDS011;48391;49.184;2.418;2023-04-03T03:13:45;6.28;;;5.40;;
62353;SDS011;48391;49.184;2.418;2023-04-03T03:16:11;6.22;;;5.35;;
62353;SDS011;48391;49.184;2.418;2023-04-03T03:18:38;7.28;;;5.07;;
62353;SDS011;48391;49.184;2.418;2023-04-03T03:21:04;9.00;;;5.95;;
62353;SDS011;48391;49.184;2.418;2023-04-03T03:23:30;7.10;;;6.00;;
62353;SDS011;48391;49.184;2.418;2023-04-03T03:25:57;7.88;;;6.63;;
62353;SDS011;48391;49.184;2.418;2023-04-03T03:28:24;7.30;;;5.03;;
62353;SDS011;48391;49.184;2.418;2023-04-03T03:30:50;7.03;;;6.15;;
62353;SDS011;48391;49.184;2.418;2023-04-03T03:33:16;6.68;;;5.95;;
62353;SDS011;48391;49.184;2.418;2023-04-03T03:35:43;5.72;;;5.18;;
62353;SDS011;48391;49.184;2.418;2023-04-03T03:38:09;5.18;;;4.68;;
62353;SDS011;48391;49.184;2.418;2023-04-03T03:40:35;4.47;;;3.80;;
62353;SDS011;48391;49.184;2.418;2023-04-03T03:43:01;4.43;;;3.95;;
62353;SDS011;48391;49.184;2.418;2023-04-03T03:45:27;5.85;;;5.15;;
62353;SDS011;48391;49.184;2.418;2023-04-03T03:47:53;4.82;;;4.32;;
62353;SDS011;48391;49.184;2.418;2023-04-03T03:50:19;3.60;;;3.30;;
62353;SDS011;48391;49.184;2.418;2023-04-03T03:52:45;5.78;;;5.05;;
62353;SDS011;48391;49.184;2.418;2023-04-03T03:55:11;6.28;;;5.20;;
62353;SDS011;48391;49.184;2.418;2023-04-03T03:57:37;7.50;;;4.75;;
62353;SDS011;48391;49.184;2.418;2023-04-03T04:00:04;5.95;;;5.40;;
62353;SDS011;48391;49.184;2.418;2023-04-03T04:02:30;5.47;;;4.75;;
62353;SDS011;48391;49.184;2.418;2023-04-03T04:04:56;4.72;;;4.30;;
62353;SDS011;48391;49.184;2.418;2023-04-03T04:07:22;3.72;;;3.42;;
62353;SDS011;48391;49.184;2.418;2023-04-03T04:09:48;3.50;;;3.20;;
62353;SDS011;48391;49.184;2.418;2023-04-03T04:12:14;3.50;;;3.20;;
62353;SDS011;48391;49.184;2.418;2023-04-03T04:14:40;5.03;;;3.97;;
62353;SDS011;48391;49.184;2.418;2023-04-03T04:17:06;6.55;;;4.95;;
62353;SDS011;48391;49.184;2.418;2023-04-03T04:19:32;4.65;;;4.25;;
62353;SDS011;48391;49.184;2.418;2023-04-03T04:21:58;4.38;;;3.92;;
62353;SDS011;48391;49.184;2.418;2023-04-03T04:24:25;3.92;;;3.38;;
62353;SDS011;48391;49.184;2.418;2023-04-03T04:26:51;4.70;;;3.03;;
62353;SDS011;48391;49.184;2.418;2023-04-03T04:29:17;2.80;;;2.60;;
62353;SDS011;48391;49.184;2.418;2023-04-03T04:31:43;1.98;;;1.85;;
62353;SDS011;48391;49.184;2.418;2023-04-03T04:34:09;10.90;;;3.38;;
62353;SDS011;48391;49.184;2.418;2023-04-03T04:36:35;3.17;;;2.88;;
62353;SDS011;48391;49.184;2.418;2023-04-03T04:39:01;2.88;;;2.50;;
62353;SDS011;48391;49.184;2.418;2023-04-03T04:41:27;3.85;;;3.58;;
62353;SDS011;48391;49.184;2.418;2023-04-03T04:43:53;2.92;;;2.58;;
62353;SDS011;48391;49.184;2.418;2023-04-03T04:46:19;2.75;;;2.55;;
62353;SDS011;48391;49.184;2.418;2023-04-03T04:48:45;3.25;;;3.05;;
62353;SDS011;48391;49.184;2.418;2023-04-03T04:51:13;5.85;;;3.15;;
62353;SDS011;48391;49.184;2.418;2023-04-03T04:53:39;3.90;;;3.60;;
62353;SDS011;48391;49.184;2.418;2023-04-03T04:56:05;4.47;;;3.10;;
62353;SDS011;48391;49.184;2.418;2023-04-03T04:58:31;5.43;;;4.75;;
62353;SDS011;48391;49.184;2.418;2023-04-03T05:01:07;3.97;;;3.65;;
62353;SDS011;48391;49.184;2.418;2023-04-03T05:03:33;3.67;;;3.38;;
62353;SDS011;48391;49.184;2.418;2023-04-03T05:06:00;2.58;;;2.38;;
62353;SDS011;48391;49.184;2.418;2023-04-03T05:08:26;3.78;;;2.80;;
62353;SDS011;48391;49.184;2.418;2023-04-03T05:10:52;3.60;;;3.30;;
62353;SDS011;48391;49.184;2.418;2023-04-03T05:13:19;3.42;;;3.08;;
62353;SDS011;48391;49.184;2.418;2023-04-03T05:15:45;4.50;;;3.10;;
62353;SDS011;48391;49.184;2.418;2023-04-03T05:18:11;3.80;;;3.42;;
62353;SDS011;48391;49.184;2.418;2023-04-03T05:20:37;6.95;;;3.42;;
62353;SDS011;48391;49.184;2.418;2023-04-03T05:23:04;4.70;;;4.28;;
62353;SDS011;48391;49.184;2.418;2023-04-03T05:25:30;4.22;;;3.85;;
62353;SDS011;48391;49.184;2.418;2023-04-03T05:27:56;3.83;;;2.88;;
62353;SDS011;48391;49.184;2.418;2023-04-03T05:30:22;4.65;;;3.67;;
62353;SDS011;48391;49.184;2.418;2023-04-03T05:32:48;5.35;;;3.92;;
62353;SDS011;48391;49.184;2.418;2023-04-03T05:35:15;3.90;;;3.60;;
62353;SDS011;48391;49.184;2.418;2023-04-03T05:37:41;3.72;;;3.42;;
62353;SDS011;48391;49.184;2.418;2023-04-03T05:40:07;8.35;;;4.60;;
62353;SDS011;48391;49.184;2.418;2023-04-03T05:42:34;5.35;;;4.90;;
62353;SDS011;48391;49.184;2.418;2023-04-03T05:45:00;6.22;;;5.60;;
62353;SDS011;48391;49.184;2.418;2023-04-03T05:47:26;8.35;;;6.25;;
62353;SDS011;48391;49.184;2.418;2023-04-03T05:49:52;6.18;;;5.57;;
62353;SDS011;48391;49.184;2.418;2023-04-03T05:52:23;8.00;;;5.70;;
62353;SDS011;48391;49.184;2.418;2023-04-03T05:54:49;8.50;;;6.10;;
62353;SDS011;48391;49.184;2.418;2023-04-03T05:57:15;8.32;;;6.85;;
62353;SDS011;48391;49.184;2.418;2023-04-03T05:59:45;7.15;;;6.47;;
62353;SDS011;48391;49.184;2.418;2023-04-03T06:02:15;8.68;;;7.05;;
62353;SDS011;48391;49.184;2.418;2023-04-03T06:04:41;7.97;;;6.22;;
62353;SDS011;48391;49.184;2.418;2023-04-03T06:07:10;9.30;;;8.40;;
62353;SDS011;48391;49.184;2.418;2023-04-03T06:09:37;8.25;;;6.28;;
62353;SDS011;48391;49.184;2.418;2023-04-03T06:12:03;8.30;;;6.15;;
62353;SDS011;48391;49.184;2.418;2023-04-03T06:14:29;9.05;;;7.70;;
62353;SDS011;48391;49.184;2.418;2023-04-03T06:16:55;9.38;;;7.28;;
62353;SDS011;48391;49.184;2.418;2023-04-03T06:19:21;9.77;;;8.68;;
62353;SDS011;48391;49.184;2.418;2023-04-03T06:21:47;9.70;;;8.70;;
62353;SDS011;48391;49.184;2.418;2023-04-03T06:24:14;8.88;;;7.53;;
62353;SDS011;48391;49.184;2.418;2023-04-03T06:26:41;10.15;;;7.85;;
62353;SDS011;48391;49.184;2.418;2023-04-03T06:29:07;6.80;;;6.03;;
62353;SDS011;48391;49.184;2.418;2023-04-03T06:31:33;8.40;;;7.60;;
62353;SDS011;48391;49.184;2.418;2023-04-03T06:34:00;7.88;;;6.60;;
62353;SDS011;48391;49.184;2.418;2023-04-03T06:36:26;11.98;;;8.18;;
62353;SDS011;48391;49.184;2.418;2023-04-03T06:38:52;8.32;;;6.82;;
62353;SDS011;48391;49.184;2.418;2023-04-03T06:41:18;8.90;;;7.45;;
62353;SDS011;48391;49.184;2.418;2023-04-03T06:43:44;8.57;;;6.68;;
62353;SDS011;48391;49.184;2.418;2023-04-03T06:46:12;10.90;;;7.15;;
62353;SDS011;48391;49.184;2.418;2023-04-03T06:48:39;5.47;;;4.97;;
62353;SDS011;48391;49.184;2.418;2023-04-03T06:51:05;9.13;;;7.07;;
62353;SDS011;48391;49.184;2.418;2023-04-03T06:53:31;5.93;;;5.22;;
62353;SDS011;48391;49.184;2.418;2023-04-03T06:55:57;6.72;;;6.00;;
62353;SDS011;48391;49.184;2.418;2023-04-03T06:58:23;7.55;;;6.78;;
62353;SDS011;48391;49.184;2.418;2023-04-03T07:00:49;6.55;;;5.95;;
62353;SDS011;48391;49.184;2.418;2023-04-03T07:03:15;9.05;;;6.70;;
62353;SDS011;48391;49.184;2.418;2023-04-03T07:05:41;9.90;;;7.00;;
62353;SDS011;48391;49.184;2.418;2023-04-03T07:08:09;7.32;;;6.63;;
62353;SDS011;48391;49.184;2.418;2023-04-03T07:10:37;8.05;;;6.47;;
62353;SDS011;48391;49.184;2.418;2023-04-03T07:13:03;7.13;;;5.80;;
62353;SDS011;48391;49.184;2.418;2023-04-03T07:15:29;7.78;;;6.32;;
62353;SDS011;48391;49.184;2.418;2023-04-03T07:17:55;6.07;;;5.43;;
62353;SDS011;48391;49.184;2.418;2023-04-03T07:20:21;6.13;;;5.53;;
62353;SDS011;48391;49.184;2.418;2023-04-03T07:22:47;9.73;;;7.57;;
62353;SDS011;48391;49.184;2.418;2023-04-03T07:25:13;7.18;;;6.25;;
62353;SDS011;48391;49.184;2.418;2023-04-03T07:27:40;7.78;;;7.07;;
62353;SDS011;48391;49.184;2.418;2023-04-03T07:30:06;7.07;;;6.38;;
62353;SDS011;48391;49.184;2.418;2023-04-03T07:32:32;8.35;;;6.88;;
62353;SDS011;48391;49.184;2.418;2023-04-03T07:34:58;7.00;;;6.38;;
62353;SDS011;48391;49.184;2.418;2023-04-03T07:37:24;7.13;;;6.00;;
62353;SDS011;48391;49.184;2.418;2023-04-03T07:39:51;5.25;;;4.63;;
62353;SDS011;48391;49.184;2.418;2023-04-03T07:42:17;5.72;;;5.13;;
62353;SDS011;48391;49.184;2.418;2023-04-03T07:44:43;6.82;;;6.10;;
62353;SDS011;48391;49.184;2.418;2023-04-03T07:47:09;6.30;;;5.43;;
62353;SDS011;48391;49.184;2.418;2023-04-03T07:49:35;4.90;;;4.40;;
62353;SDS011;48391;49.184;2.418;2023-04-03T07:52:04;4.70;;;4.00;;
62353;SDS011;48391;49.184;2.418;2023-04-03T07:54:32;6.25;;;5.47;;
62353;SDS011;48391;49.184;2.418;2023-04-03T07:56:58;6.25;;;4.90;;
62353;SDS011;48391;49.184;2.418;2023-04-03T07:59:24;4.15;;;3.78;;
62353;SDS011;48391;49.184;2.418;2023-04-03T08:01:50;5.88;;;4.90;;
62353;SDS011;48391;49.184;2.418;2023-04-03T08:04:16;5.28;;;4.88;;
62353;SDS011;48391;49.184;2.418;2023-04-03T08:06:42;5.15;;;4.68;;
62353;SDS011;48391;49.184;2.418;2023-04-03T08:09:08;4.55;;;4.15;;
62353;SDS011;48391;49.184;2.418;2023-04-03T08:11:34;4.35;;;3.95;;
62353;SDS011;48391;49.184;2.418;2023-04-03T08:14:01;4.07;;;3.63;;
62353;SDS011;48391;49.184;2.418;2023-04-03T08:16:27;4.47;;;3.88;;
62353;SDS011;48391;49.184;2.418;2023-04-03T08:18:54;3.72;;;3.42;;
62353;SDS011;48391;49.184;2.418;2023-04-03T08:21:20;5.25;;;3.78;;
62353;SDS011;48391;49.184;2.418;2023-04-03T08:23:47;4.15;;;3.75;;
62353;SDS011;48391;49.184;2.418;2023-04-03T08:26:16;3.50;;;2.97;;
62353;SDS011;48391;49.184;2.418;2023-04-03T08:28:42;3.40;;;2.95;;
62353;SDS011;48391;49.184;2.418;2023-04-03T08:31:10;3.47;;;3.17;;
62353;SDS011;48391;49.184;2.418;2023-04-03T08:33:36;2.95;;;2.70;;
62353;SDS011;48391;49.184;2.418;2023-04-03T08:36:03;3.40;;;2.47;;
62353;SDS011;48391;49.184;2.418;2023-04-03T08:38:30;4.50;;;2.67;;
62353;SDS011;48391;49.184;2.418;2023-04-03T08:41:04;4.10;;;3.33;;
62353;SDS011;48391;49.184;2.418;2023-04-03T08:43:36;2.45;;;2.25;;
62353;SDS011;48391;49.184;2.418;2023-04-03T08:46:05;1.90;;;1.80;;
62353;SDS011;48391;49.184;2.418;2023-04-03T08:48:35;2.78;;;2.47;;
62353;SDS011;48391;49.184;2.418;2023-04-03T08:51:09;2.13;;;2.00;;
62353;SDS011;48391;49.184;2.418;2023-04-03T08:53:39;1.67;;;1.58;;
62353;SDS011;48391;49.184;2.418;2023-04-03T08:56:07;1.95;;;1.83;;
62353;SDS011;48391;49.184;2.418;2023-04-03T08:58:50;2.03;;;1.58;;
62353;SDS011;48391;49.184;2.418;2023-04-03T09:01:34;6.90;;;2.33;;
62353;SDS011;48391;49.184;2.418;2023-04-03T09:04:01;2.10;;;1.92;;
62353;SDS011;48391;49.184;2.418;2023-04-03T09:06:31;1.42;;;1.33;;
62353;SDS011;48391;49.184;2.418;2023-04-03T09:14:02;1.67;;;1.58;;
62353;SDS011;48391;49.184;2.418;2023-04-03T09:21:51;1.42;;;1.33;;
62353;SDS011;48391;49.184;2.418;2023-04-03T09:24:17;1.40;;;1.40;;
62353;SDS011;48391;49.184;2.418;2023-04-03T09:27:00;1.30;;;1.20;;
62353;SDS011;48391;49.184;2.418;2023-04-03T09:29:27;1.95;;;1.38;;
62353;SDS011;48391;49.184;2.418;2023-04-03T09:31:58;0.93;;;0.85;;
62353;SDS011;48391;49.184;2.418;2023-04-03T09:34:32;1.30;;;1.10;;
62353;SDS011;48391;49.184;2.418;2023-04-03T09:36:59;0.75;;;0.75;;
62353;SDS011;48391;49.184;2.418;2023-04-03T09:39:31;0.80;;;0.80;;
62353;SDS011;48391;49.184;2.418;2023-04-03T09:44:25;1.13;;;1.00;;
62353;SDS011;48391;49.184;2.418;2023-04-03T09:46:51;2.15;;;1.08;;
62353;SDS011;48391;49.184;2.418;2023-04-03T09:49:18;2.03;;;1.65;;
62353;SDS011;48391;49.184;2.418;2023-04-03T09:51:44;0.70;;;0.70;;
62353;SDS011;48391;49.184;2.418;2023-04-03T09:54:23;1.30;;;1.20;;
62353;SDS011;48391;49.184;2.418;2023-04-03T09:56:51;0.90;;;0.90;;
62353;SDS011;48391;49.184;2.418;2023-04-03T09:59:17;1.48;;;0.93;;
62353;SDS011;48391;49.184;2.418;2023-04-03T10:01:55;2.08;;;1.13;;
62353;SDS011;48391;49.184;2.418;2023-04-03T10:04:22;2.60;;;0.73;;
62353;SDS011;48391;49.184;2.418;2023-04-03T10:06:50;1.08;;;0.70;;
62353;SDS011;48391;49.184;2.418;2023-04-03T10:12:20;1.45;;;0.80;;
62353;SDS011;48391;49.184;2.418;2023-04-03T10:15:00;0.98;;;0.60;;
62353;SDS011;48391;49.184;2.418;2023-04-03T20:46:55;1.50;;;1.30;;
62353;SDS011;48391;49.184;2.418;2023-04-03T20:49:22;1.85;;;0.82;;
62353;SDS011;48391;49.184;2.418;2023-04-03T20:51:49;0.82;;;0.77;;
62353;SDS011;48391;49.184;2.418;2023-04-03T20:54:15;1.83;;;1.13;;
62353;SDS011;48391;49.184;2.418;2023-04-03T20:56:41;1.00;;;0.85;;
62353;SDS011;48391;49.184;2.418;2023-04-03T20:59:08;2.58;;;1.90;;
62353;SDS011;48391;49.184;2.418;2023-04-03T21:01:35;2.33;;;1.52;;
62353;SDS011;48391;49.184;2.418;2023-04-03T21:04:10;1.73;;;1.15;;
62353;SDS011;48391;49.184;2.418;2023-04-03T21:20:04;1.48;;;1.38;;
62353;SDS011;48391;49.184;2.418;2023-04-03T21:22:32;1.67;;;1.25;;
62353;SDS011;48391;49.184;2.418;2023-04-03T21:24:58;2.20;;;1.20;;
62353;SDS011;48391;49.184;2.418;2023-04-03T21:27:24;2.05;;;1.10;;
62353;SDS011;48391;49.184;2.418;2023-04-03T21:29:52;1.00;;;1.00;;
62353;SDS011;48391;49.184;2.418;2023-04-03T21:32:18;1.48;;;1.25;;
62353;SDS011;48391;49.184;2.418;2023-04-03T21:34:44;1.88;;;0.50;;
62353;SDS011;48391;49.184;2.418;2023-04-03T21:37:11;2.25;;;1.33;;
62353;SDS011;48391;49.184;2.418;2023-04-03T21:39:38;1.63;;;1.25;;
62353;SDS011;48391;49.184;2.418;2023-04-03T21:42:05;1.92;;;1.13;;
62353;SDS011;48391;49.184;2.418;2023-04-03T21:44:32;0.80;;;0.73;;
62353;SDS011;48391;49.184;2.418;2023-04-03T21:46:58;0.85;;;0.85;;
62353;SDS011;48391;49.184;2.418;2023-04-03T21:49:24;1.08;;;0.73;;
62353;SDS011;48391;49.184;2.418;2023-04-03T21:51:51;1.35;;;1.02;;
62353;SDS011;48391;49.184;2.418;2023-04-03T21:54:17;1.60;;;0.85;;
62353;SDS011;48391;49.184;2.418;2023-04-03T21:56:43;1.13;;;0.57;;
62353;SDS011;48391;49.184;2.418;2023-04-03T21:59:09;0.88;;;0.60;;
62353;SDS011;48391;49.184;2.418;2023-04-03T22:01:35;0.68;;;0.50;;
62353;SDS011;48391;49.184;2.418;2023-04-03T22:04:01;0.60;;;0.60;;
62353;SDS011;48391;49.184;2.418;2023-04-03T22:06:28;1.48;;;0.95;;
62353;SDS011;48391;49.184;2.418;2023-04-03T22:08:54;0.40;;;0.40;;
62353;SDS011;48391;49.184;2.418;2023-04-03T22:11:21;1.05;;;0.40;;
62353;SDS011;48391;49.184;2.418;2023-04-03T22:13:50;1.33;;;0.98;;
62353;SDS011;48391;49.184;2.418;2023-04-03T22:16:16;0.82;;;0.63;;
62353;SDS011;48391;49.184;2.418;2023-04-03T22:18:43;0.50;;;0.50;;
62353;SDS011;48391;49.184;2.418;2023-04-03T22:21:09;0.88;;;0.57;;
62353;SDS011;48391;49.184;2.418;2023-04-03T22:23:35;1.50;;;1.30;;
62353;SDS011;48391;49.184;2.418;2023-04-03T22:26:05;1.05;;;0.77;;
62353;SDS011;48391;49.184;2.418;2023-04-03T22:28:33;1.42;;;1.15;;
62353;SDS011;48391;49.184;2.418;2023-04-03T22:31:00;2.00;;;1.25;;
62353;SDS011;48391;49.184;2.418;2023-04-03T22:33:36;0.80;;;0.70;;
62353;SDS011;48391;49.184;2.418;2023-04-03T22:36:02;0.80;;;0.68;;
62353;SDS011;48391;49.184;2.418;2023-04-03T22:38:29;2.70;;;0.80;;
62353;SDS011;48391;49.184;2.418;2023-04-03T22:40:55;1.75;;;0.90;;
62353;SDS011;48391;49.184;2.418;2023-04-03T22:43:22;1.25;;;1.00;;
62353;SDS011;48391;49.184;2.418;2023-04-03T22:45:49;1.48;;;0.70;;
62353;SDS011;48391;49.184;2.418;2023-04-03T22:48:15;2.35;;;1.02;;
62353;SDS011;48391;49.184;2.418;2023-04-03T22:50:42;1.73;;;0.80;;
62353;SDS011;48391;49.184;2.418;2023-04-03T22:53:09;2.05;;;1.00;;
62353;SDS011;48391;49.184;2.418;2023-04-03T22:55:35;1.55;;;0.73;;
62353;SDS011;48391;49.184;2.418;2023-04-03T22:58:02;2.40;;;1.13;;
62353;SDS011;48391;49.184;2.418;2023-04-03T23:00:28;1.05;;;0.77;;
62353;SDS011;48391;49.184;2.418;2023-04-03T23:02:54;1.33;;;0.60;;
62353;SDS011;48391;49.184;2.418;2023-04-03T23:05:20;1.30;;;1.02;;
62353;SDS011;48391;49.184;2.418;2023-04-03T23:07:46;1.17;;;0.50;;
62353;SDS011;48391;49.184;2.418;2023-04-03T23:10:12;0.95;;;0.50;;
62353;SDS011;48391;49.184;2.418;2023-04-03T23:12:38;1.42;;;0.60;;
62353;SDS011;48391;49.184;2.418;2023-04-03T23:15:05;0.70;;;0.43;;
62353;SDS011;48391;49.184;2.418;2023-04-03T23:17:34;0.68;;;0.60;;
62353;SDS011;48391;49.184;2.418;2023-04-03T23:20:01;1.20;;;0.50;;
62353;SDS011;48391;49.184;2.418;2023-04-03T23:22:27;0.20;;;0.20;;
62353;SDS011;48391;49.184;2.418;2023-04-03T23:24:53;1.55;;;0.60;;
62353;SDS011;48391;49.184;2.418;2023-04-03T23:27:19;1.13;;;0.45;;
62353;SDS011;48391;49.184;2.418;2023-04-03T23:29:45;0.57;;;0.38;;
62353;SDS011;48391;49.184;2.418;2023-04-03T23:32:11;0.85;;;0.85;;
62353;SDS011;48391;49.184;2.418;2023-04-03T23:34:37;1.08;;;0.50;;
62353;SDS011;48391;49.184;2.418;2023-04-03T23:37:03;0.88;;;0.40;;
62353;SDS011;48391;49.184;2.418;2023-04-03T23:39:30;1.17;;;0.50;;
62353;SDS011;48391;49.184;2.418;2023-04-03T23:41:57;0.80;;;0.38;;
62353;SDS011;48391;49.184;2.418;2023-04-03T23:44:23;1.67;;;0.43;;
62353;SDS011;48391;49.184;2.418;2023-04-03T23:46:49;0.38;;;0.30;;
62353;SDS011;48391;49.184;2.418;2023-04-03T23:49:15;3.03;;;1.00;;
62353;SDS011;48391;49.184;2.418;2023-04-03T23:51:41;0.93;;;0.82;;
62353;SDS011;48391;49.184;2.418;2023-04-03T23:54:07;0.77;;;0.65;;
62353;SDS011;48391;49.184;2.418;2023-04-03T23:56:33;0.52;;;0.43;;
62353;SDS011;48391;49.184;2.418;2023-04-03T23:58:59;1.27;;;0.88;;
